createdAt,value
2019-02-07T00:00:54.278Z,25.25
2019-02-07T00:03:23.873Z,24.65
2019-02-07T00:05:53.171Z,23.12
2019-02-07T00:08:22.734Z,24.60
2019-02-07T00:10:52.047Z,23.77
2019-02-07T00:13:21.336Z,24.52
2019-02-07T00:15:50.648Z,23.87
2019-02-07T00:18:19.934Z,25.15
2019-02-07T00:20:49.231Z,24.40
2019-02-07T00:23:18.803Z,23.70
2019-02-07T00:25:48.115Z,25.05
2019-02-07T00:28:17.414Z,24.50
2019-02-07T00:30:46.715Z,22.52
2019-02-07T00:33:16.007Z,24.77
2019-02-07T00:35:45.523Z,24.63
2019-02-07T00:38:14.806Z,22.07
2019-02-07T00:40:44.111Z,23.52
2019-02-07T00:43:13.424Z,22.15
2019-02-07T00:45:42.723Z,21.65
2019-02-07T00:48:12.027Z,22.60
2019-02-07T00:50:41.315Z,22.90
2019-02-07T00:53:10.917Z,24.35
2019-02-07T00:55:40.203Z,22.95
2019-02-07T00:58:09.597Z,22.35
2019-02-07T01:00:39.226Z,24.15
2019-02-07T01:03:08.602Z,23.38
2019-02-07T01:05:37.953Z,24.80
2019-02-07T01:08:07.323Z,21.45
2019-02-07T01:10:36.684Z,22.42
2019-02-07T01:13:05.986Z,21.80
2019-02-07T01:15:35.342Z,23.02
2019-02-07T01:18:04.778Z,22.22
2019-02-07T01:20:34.198Z,21.60
2019-02-07T01:23:03.563Z,24.47
2019-02-07T01:25:32.846Z,22.00
2019-02-07T01:28:02.207Z,22.32
2019-02-07T01:30:31.579Z,22.90
2019-02-07T01:33:00.942Z,23.75
2019-02-07T01:35:30.244Z,20.75
2019-02-07T01:37:59.611Z,22.42
2019-02-07T01:40:28.895Z,22.75
2019-02-07T01:42:58.207Z,21.93
2019-02-07T01:45:27.498Z,22.85
2019-02-07T01:47:56.782Z,23.05
2019-02-07T01:50:26.536Z,23.50
2019-02-07T01:52:56.175Z,22.65
2019-02-07T01:55:25.527Z,21.90
2019-02-07T01:57:54.867Z,22.58
2019-02-07T02:00:24.531Z,21.65
2019-02-07T02:02:53.834Z,23.55
2019-02-07T02:05:23.191Z,22.95
2019-02-07T02:07:52.487Z,22.85
2019-02-07T02:10:23.927Z,23.75
2019-02-07T02:12:53.226Z,21.97
2019-02-07T02:15:24.930Z,23.27
2019-02-07T02:17:54.811Z,22.22
2019-02-07T02:20:25.218Z,21.55
2019-02-07T02:22:55.657Z,22.58
2019-02-07T02:25:25.185Z,23.77
2019-02-07T02:27:54.559Z,22.52
2019-02-07T02:30:32.895Z,25.05
2019-02-07T02:33:02.946Z,22.58
2019-02-07T02:35:32.516Z,20.32
2019-02-07T02:38:01.807Z,22.60
2019-02-07T02:40:31.120Z,22.80
2019-02-07T02:43:00.412Z,21.07
2019-02-07T02:45:37.443Z,22.15
2019-02-07T02:48:01.015Z,23.65
2019-02-07T02:50:30.312Z,22.70
2019-02-07T02:52:59.615Z,22.75
2019-02-07T02:55:36.235Z,21.87
2019-02-07T02:58:05.980Z,22.32
2019-02-07T03:00:37.153Z,22.27
2019-02-07T03:03:20.205Z,23.42
2019-02-07T03:06:07.947Z,23.15
2019-02-07T03:08:48.515Z,22.05
2019-02-07T03:11:34.967Z,23.67
2019-02-07T03:14:12.407Z,23.20
2019-02-07T03:16:55.951Z,23.22
2019-02-07T03:19:26.885Z,22.70
2019-02-07T03:22:14.195Z,20.88
2019-02-07T03:25:01.987Z,23.62
2019-02-07T03:27:33.184Z,22.87
2019-02-07T03:30:20.584Z,24.80
2019-02-07T03:32:55.085Z,21.30
2019-02-07T03:35:32.160Z,24.00
2019-02-07T03:38:15.588Z,23.02
2019-02-07T03:41:02.955Z,23.22
2019-02-07T03:43:36.610Z,22.73
2019-02-07T03:46:16.911Z,22.02
2019-02-07T03:48:47.857Z,22.82
2019-02-07T03:51:21.468Z,22.98
2019-02-07T03:54:07.399Z,21.25
2019-02-07T03:56:50.800Z,25.00
2019-02-07T03:59:21.734Z,20.72
2019-02-07T04:02:08.879Z,21.52
2019-02-07T04:04:54.855Z,22.95
2019-02-07T04:07:37.771Z,22.52
2019-02-07T04:10:21.467Z,24.00
2019-02-07T04:13:08.677Z,23.95
2019-02-07T04:15:39.623Z,23.02
2019-02-07T04:18:19.778Z,20.92
2019-02-07T04:21:05.748Z,22.02
2019-02-07T04:23:51.636Z,24.15
2019-02-07T04:26:31.491Z,22.67
2019-02-07T04:29:17.811Z,25.12
2019-02-07T04:32:00.890Z,24.12
2019-02-07T04:34:34.499Z,23.30
2019-02-07T04:37:05.727Z,22.50
2019-02-07T04:39:39.575Z,22.55
2019-02-07T04:42:16.819Z,21.85
2019-02-07T04:44:56.468Z,22.40
2019-02-07T04:47:27.407Z,22.20
2019-02-07T04:49:58.650Z,22.55
2019-02-07T04:52:29.601Z,22.20
2019-02-07T04:55:03.473Z,21.93
2019-02-07T04:57:40.311Z,22.32
2019-02-07T05:00:16.723Z,22.95
2019-02-07T05:02:53.627Z,23.02
2019-02-07T05:05:24.583Z,23.20
2019-02-07T05:08:12.132Z,24.10
2019-02-07T05:10:54.995Z,22.70
2019-02-07T05:13:31.635Z,22.20
2019-02-07T05:16:19.176Z,24.63
2019-02-07T05:18:56.643Z,23.70
2019-02-07T05:21:33.500Z,24.25
2019-02-07T05:24:07.462Z,22.62
2019-02-07T05:26:47.635Z,24.95
2019-02-07T05:29:33.846Z,21.75
2019-02-07T05:32:07.455Z,23.27
2019-02-07T05:34:47.582Z,28.02
2019-02-07T05:37:24.513Z,23.77
2019-02-07T05:39:55.739Z,25.05
2019-02-07T05:42:29.937Z,25.50
2019-02-07T05:45:13.059Z,25.20
2019-02-07T05:47:56.035Z,24.43
2019-02-07T05:50:32.994Z,24.43
2019-02-07T05:53:03.939Z,26.93
2019-02-07T05:55:34.883Z,24.95
2019-02-07T05:58:06.191Z,27.10
2019-02-07T06:00:46.451Z,27.20
2019-02-07T06:03:26.370Z,27.70
2019-02-07T06:06:09.238Z,24.32
2019-02-07T06:08:40.460Z,27.30
2019-02-07T06:11:23.333Z,26.27
2019-02-07T06:13:57.212Z,26.57
2019-02-07T06:16:31.115Z,26.52
2019-02-07T06:19:07.826Z,26.42
2019-02-07T06:21:55.686Z,24.57
2019-02-07T06:24:38.599Z,27.20
2019-02-07T06:27:21.842Z,29.90
2019-02-07T06:30:05.079Z,27.50
2019-02-07T06:32:45.034Z,26.25
2019-02-07T06:35:27.938Z,27.58
2019-02-07T06:37:58.875Z,28.30
2019-02-07T06:40:41.975Z,28.32
2019-02-07T06:43:25.223Z,28.32
2019-02-07T06:45:58.831Z,28.75
2019-02-07T06:48:29.785Z,29.15
2019-02-07T06:51:00.711Z,27.48
2019-02-07T06:53:48.148Z,29.48
2019-02-07T06:56:24.786Z,27.98
2019-02-07T06:59:07.974Z,27.77
2019-02-07T07:01:38.914Z,27.50
2019-02-07T07:04:26.188Z,26.45
2019-02-07T07:07:12.074Z,26.55
2019-02-07T07:09:43.491Z,29.40
2019-02-07T07:12:17.081Z,28.52
2019-02-07T07:14:51.587Z,27.82
2019-02-07T07:17:28.250Z,29.00
2019-02-07T07:20:15.463Z,27.20
2019-02-07T07:22:59.000Z,27.70
2019-02-07T07:25:38.647Z,26.57
2019-02-07T07:28:25.564Z,27.32
2019-02-07T07:31:02.222Z,29.40
2019-02-07T07:33:42.148Z,28.62
2019-02-07T07:36:15.770Z,28.30
2019-02-07T07:38:55.404Z,26.57
2019-02-07T07:41:39.167Z,27.85
2019-02-07T07:44:10.171Z,29.55
2019-02-07T07:46:57.288Z,28.83
2019-02-07T07:49:36.910Z,27.42
2019-02-07T07:52:23.884Z,27.62
2019-02-07T07:55:03.782Z,27.98
2019-02-07T07:57:35.015Z,29.35
2019-02-07T08:00:09.527Z,29.23
2019-02-07T08:02:56.964Z,28.87
2019-02-07T08:05:33.807Z,30.30
2019-02-07T08:08:17.011Z,27.60
2019-02-07T08:11:02.712Z,30.68
2019-02-07T08:13:36.747Z,32.42
2019-02-07T08:16:24.057Z,28.92
2019-02-07T08:19:00.731Z,30.55
2019-02-07T08:21:31.655Z,30.05
2019-02-07T08:24:11.615Z,30.30
2019-02-07T08:26:54.536Z,30.00
2019-02-07T08:29:34.424Z,31.37
2019-02-07T08:32:14.471Z,29.63
2019-02-07T08:34:48.317Z,28.80
2019-02-07T08:37:35.681Z,28.80
2019-02-07T08:40:09.934Z,29.95
2019-02-07T08:42:53.447Z,29.50
2019-02-07T08:45:27.697Z,28.07
2019-02-07T08:48:03.881Z,27.62
2019-02-07T08:50:40.063Z,29.80
2019-02-07T08:53:17.039Z,29.50
2019-02-07T08:56:04.169Z,29.18
2019-02-07T08:58:50.127Z,28.02
2019-02-07T09:01:33.308Z,31.07
2019-02-07T09:04:07.352Z,30.72
2019-02-07T09:06:38.296Z,28.70
2019-02-07T09:09:28.403Z,29.57
2019-02-07T09:12:08.077Z,28.30
2019-02-07T09:14:55.531Z,29.95
2019-02-07T09:17:32.411Z,29.70
2019-02-07T09:20:06.308Z,30.95
2019-02-07T09:22:37.251Z,31.05
2019-02-07T09:25:08.931Z,31.75
2019-02-07T09:27:55.845Z,32.93
2019-02-07T09:30:26.787Z,33.40
2019-02-07T09:33:00.731Z,33.02
2019-02-07T09:35:48.055Z,30.68
2019-02-07T09:38:33.947Z,34.43
2019-02-07T09:41:13.998Z,31.62
2019-02-07T09:43:44.931Z,31.62
2019-02-07T09:46:16.182Z,33.20
2019-02-07T09:49:03.607Z,33.10
2019-02-07T09:51:49.543Z,33.67
2019-02-07T09:54:20.472Z,33.35
2019-02-07T09:56:54.371Z,36.60
2019-02-07T09:59:34.336Z,33.02
2019-02-07T10:02:14.454Z,33.45
2019-02-07T10:04:48.578Z,33.95
2019-02-07T10:07:35.691Z,33.25
2019-02-07T10:10:22.059Z,32.25
2019-02-07T10:12:52.999Z,33.13
2019-02-07T10:15:24.176Z,32.60
2019-02-07T10:18:11.931Z,33.35
2019-02-07T10:20:43.663Z,31.25
2019-02-07T10:23:17.711Z,31.57
2019-02-07T10:25:51.520Z,32.45
2019-02-07T10:28:40.491Z,33.02
2019-02-07T10:31:14.066Z,31.73
2019-02-07T10:33:47.919Z,35.60
2019-02-07T10:36:28.072Z,35.45
2019-02-07T10:39:17.083Z,36.30
2019-02-07T10:41:48.034Z,36.53
2019-02-07T10:44:25.247Z,35.08
2019-02-07T10:47:02.125Z,34.20
2019-02-07T10:49:36.187Z,33.85
2019-02-07T10:52:13.675Z,33.73
2019-02-07T10:55:01.016Z,33.13
2019-02-07T10:57:48.629Z,37.55
2019-02-07T11:00:31.751Z,34.30
2019-02-07T11:03:15.799Z,34.00
2019-02-07T11:05:54.573Z,34.80
2019-02-07T11:08:25.371Z,31.30
2019-02-07T11:11:05.415Z,32.53
2019-02-07T11:13:48.279Z,33.95
2019-02-07T11:16:37.931Z,28.40
2019-02-07T11:19:25.336Z,29.60
2019-02-07T11:22:05.359Z,31.97
2019-02-07T11:24:51.426Z,30.72
2019-02-07T11:27:38.483Z,32.53
2019-02-07T11:30:18.679Z,32.00
2019-02-07T11:32:52.640Z,32.13
2019-02-07T11:35:40.116Z,30.88
2019-02-07T11:38:23.375Z,34.45
2019-02-07T11:40:54.323Z,34.38
2019-02-07T11:43:26.007Z,33.50
2019-02-07T11:46:13.103Z,32.85
2019-02-07T11:48:44.044Z,32.93
2019-02-07T11:51:20.895Z,33.78
2019-02-07T11:53:51.839Z,31.00
2019-02-07T11:56:28.708Z,32.58
2019-02-07T11:58:59.643Z,32.03
2019-02-07T12:01:47.036Z,34.20
2019-02-07T12:04:24.111Z,33.85
2019-02-07T12:07:11.363Z,30.82
2019-02-07T12:09:45.029Z,29.90
2019-02-07T12:12:16.284Z,33.25
2019-02-07T12:14:51.247Z,30.43
2019-02-07T12:17:23.031Z,33.23
2019-02-07T12:20:10.516Z,30.55
2019-02-07T12:22:49.152Z,32.38
2019-02-07T12:25:36.356Z,32.53
2019-02-07T12:28:07.394Z,32.40
2019-02-07T12:30:38.322Z,30.95
2019-02-07T12:33:18.431Z,30.85
2019-02-07T12:36:05.969Z,31.30
2019-02-07T12:38:46.672Z,35.03
2019-02-07T12:41:20.619Z,38.08
2019-02-07T12:44:03.796Z,35.08
2019-02-07T12:46:43.719Z,35.30
2019-02-07T12:49:29.315Z,35.15
2019-02-07T12:51:57.215Z,33.38
2019-02-07T12:54:37.299Z,35.13
2019-02-07T12:57:11.167Z,30.60
2019-02-07T12:59:48.254Z,31.97
2019-02-07T13:02:34.451Z,33.28
2019-02-07T13:05:24.583Z,32.83
2019-02-07T13:07:55.779Z,33.83
2019-02-07T13:10:27.032Z,34.90
2019-02-07T13:13:14.171Z,36.75
2019-02-07T13:16:01.759Z,36.95
2019-02-07T13:18:33.034Z,33.63
2019-02-07T13:21:16.348Z,35.75
2019-02-07T13:24:03.233Z,34.48
2019-02-07T13:26:34.280Z,34.20
2019-02-07T13:29:17.707Z,31.77
2019-02-07T13:31:51.355Z,35.95
2019-02-07T13:34:25.311Z,35.28
2019-02-07T13:36:56.294Z,34.00
2019-02-07T13:39:29.929Z,34.00
2019-02-07T13:42:07.387Z,35.60
2019-02-07T13:44:54.556Z,33.83
2019-02-07T13:47:25.487Z,33.78
2019-02-07T13:49:59.111Z,31.07
2019-02-07T13:52:30.035Z,31.57
2019-02-07T13:55:09.766Z,31.45
2019-02-07T13:57:49.435Z,31.37
2019-02-07T14:00:35.991Z,31.15
2019-02-07T14:03:07.019Z,30.90
2019-02-07T14:05:38.634Z,36.17
2019-02-07T14:08:12.692Z,32.35
2019-02-07T14:11:01.724Z,31.85
2019-02-07T14:13:50.974Z,32.50
2019-02-07T14:16:37.202Z,33.45
2019-02-07T14:19:11.043Z,32.60
2019-02-07T14:21:58.529Z,32.80
2019-02-07T14:24:45.648Z,32.42
2019-02-07T14:27:28.423Z,33.63
2019-02-07T14:29:59.640Z,31.97
2019-02-07T14:32:30.751Z,33.67
2019-02-07T14:35:07.867Z,33.02
2019-02-07T14:37:38.823Z,33.13
2019-02-07T14:40:18.324Z,34.70
2019-02-07T14:42:49.591Z,38.10
2019-02-07T14:45:36.948Z,31.42
2019-02-07T14:48:06.828Z,32.33
2019-02-07T14:50:36.118Z,34.43
2019-02-07T14:53:05.800Z,32.48
2019-02-07T14:55:35.087Z,33.23
2019-02-07T14:58:04.658Z,33.15
2019-02-07T15:00:33.968Z,31.77
2019-02-07T15:03:03.339Z,32.28
2019-02-07T15:05:32.639Z,31.90
2019-02-07T15:08:02.207Z,33.98
2019-02-07T15:10:31.731Z,34.10
2019-02-07T15:13:01.433Z,32.08
2019-02-07T15:15:31.187Z,33.98
2019-02-07T15:18:00.492Z,34.60
2019-02-07T15:20:30.096Z,33.13
2019-02-07T15:23:00.007Z,31.30
2019-02-07T15:25:29.291Z,32.48
2019-02-07T15:27:58.589Z,31.20
2019-02-07T15:30:27.891Z,29.70
2019-02-07T15:32:57.179Z,30.85
2019-02-07T15:35:41.698Z,30.82
2019-02-07T15:38:10.999Z,27.82
2019-02-07T15:40:40.287Z,29.92
2019-02-07T15:43:09.879Z,32.67
2019-02-07T15:45:39.406Z,30.15
2019-02-07T15:48:08.882Z,29.72
2019-02-07T15:50:38.836Z,35.73
2019-02-07T15:53:08.207Z,36.93
2019-02-07T15:55:37.503Z,32.75
2019-02-07T15:58:07.115Z,32.58
2019-02-07T16:00:44.027Z,34.35
2019-02-07T16:03:21.171Z,33.05
2019-02-07T16:05:50.488Z,32.88
2019-02-07T16:08:19.799Z,31.35
2019-02-07T16:10:49.491Z,30.55
2019-02-07T16:13:18.813Z,29.50
2019-02-07T16:15:48.103Z,29.55
2019-02-07T16:18:17.423Z,28.55
2019-02-07T16:20:48.928Z,29.95
2019-02-07T16:23:17.707Z,29.95
2019-02-07T16:25:47.011Z,29.02
2019-02-07T16:28:16.304Z,27.73
2019-02-07T16:30:46.231Z,28.67
2019-02-07T16:33:15.772Z,27.55
2019-02-07T16:35:45.077Z,29.02
2019-02-07T16:38:14.383Z,26.97
2019-02-07T16:40:43.676Z,28.85
2019-02-07T16:43:12.962Z,27.10
2019-02-07T16:45:42.638Z,26.60
2019-02-07T16:48:12.044Z,26.70
2019-02-07T16:50:41.581Z,27.05
2019-02-07T16:53:11.187Z,28.60
2019-02-07T16:55:40.491Z,26.02
2019-02-07T16:58:10.007Z,24.85
2019-02-07T17:00:39.715Z,25.40
2019-02-07T17:03:09.311Z,27.35
2019-02-07T17:05:38.615Z,25.95
2019-02-07T17:08:07.918Z,27.40
2019-02-07T17:10:39.140Z,29.27
2019-02-07T17:13:13.356Z,26.15
2019-02-07T17:15:42.837Z,26.37
2019-02-07T17:18:12.131Z,25.85
2019-02-07T17:20:41.423Z,23.75
2019-02-07T17:23:10.729Z,25.50
2019-02-07T17:25:40.289Z,27.25
2019-02-07T17:28:09.599Z,27.27
2019-02-07T17:30:38.963Z,26.60
2019-02-07T17:33:08.611Z,26.85
2019-02-07T17:35:38.212Z,30.85
2019-02-07T17:38:07.743Z,26.68
2019-02-07T17:40:37.095Z,26.95
2019-02-07T17:43:06.828Z,29.37
2019-02-07T17:45:36.436Z,31.80
2019-02-07T17:48:06.210Z,35.80
2019-02-07T17:50:37.153Z,33.45
2019-02-07T17:53:11.355Z,34.70
2019-02-07T17:55:40.735Z,36.48
2019-02-07T17:58:11.335Z,34.92
2019-02-07T18:00:48.463Z,34.33
2019-02-07T18:03:17.747Z,31.70
2019-02-07T18:05:47.208Z,30.52
2019-02-07T18:08:16.487Z,28.77
2019-02-07T18:10:45.851Z,30.55
2019-02-07T18:13:15.139Z,29.40
2019-02-07T18:15:44.442Z,28.70
2019-02-07T18:18:13.727Z,26.90
2019-02-07T18:20:43.104Z,27.17
2019-02-07T18:23:12.382Z,27.22
2019-02-07T18:25:41.695Z,26.35
2019-02-07T18:28:10.979Z,25.27
2019-02-07T18:30:40.547Z,29.50
2019-02-07T18:33:09.834Z,26.68
2019-02-07T18:35:39.131Z,27.90
2019-02-07T18:38:08.419Z,29.00
2019-02-07T18:40:37.732Z,27.70
2019-02-07T18:43:07.074Z,26.90
2019-02-07T18:45:36.751Z,25.27
2019-02-07T18:48:06.040Z,27.30
2019-02-07T18:50:37.516Z,28.27
2019-02-07T18:53:07.216Z,25.37
2019-02-07T18:55:36.596Z,26.73
2019-02-07T18:58:06.039Z,25.77
2019-02-07T19:00:37.083Z,24.63
2019-02-07T19:03:08.170Z,24.95
2019-02-07T19:05:38.019Z,25.40
2019-02-07T19:08:07.481Z,25.20
2019-02-07T19:10:36.838Z,24.72
2019-02-07T19:13:06.204Z,25.10
2019-02-07T19:15:41.451Z,22.82
2019-02-07T19:18:10.810Z,24.77
2019-02-07T19:20:40.114Z,25.05
2019-02-07T19:23:09.779Z,23.92
2019-02-07T19:25:39.408Z,26.35
2019-02-07T19:28:09.003Z,24.25
2019-02-07T19:30:39.085Z,23.92
2019-02-07T19:33:08.391Z,38.08
2019-02-07T19:35:37.729Z,29.75
2019-02-07T19:38:07.134Z,25.43
2019-02-07T19:40:37.477Z,25.85
2019-02-07T19:43:06.839Z,23.27
2019-02-07T19:45:36.139Z,24.75
2019-02-07T19:48:05.510Z,22.10
2019-02-07T19:50:34.807Z,21.87
2019-02-07T19:53:04.203Z,19.98
2019-02-07T19:55:33.699Z,23.38
2019-02-07T19:58:03.051Z,21.85
2019-02-07T20:00:36.035Z,21.17
2019-02-07T20:03:05.440Z,21.97
2019-02-07T20:05:34.754Z,21.77
2019-02-07T20:08:04.277Z,21.82
2019-02-07T20:10:33.947Z,22.65
2019-02-07T20:13:03.572Z,23.07
2019-02-07T20:15:35.156Z,22.05
2019-02-07T20:18:06.279Z,23.22
2019-02-07T20:20:36.207Z,25.08
2019-02-07T20:23:05.491Z,26.20
2019-02-07T20:25:34.786Z,26.12
2019-02-07T20:28:04.620Z,26.27
2019-02-07T20:30:39.788Z,23.05
2019-02-07T20:33:09.554Z,22.07
2019-02-07T20:35:38.919Z,22.67
2019-02-07T20:38:09.748Z,22.60
2019-02-07T20:40:39.038Z,25.68
2019-02-07T20:43:08.401Z,25.95
2019-02-07T20:45:37.705Z,25.70
2019-02-07T20:48:07.879Z,27.40
2019-02-07T20:50:38.439Z,23.57
2019-02-07T20:53:07.818Z,25.23
2019-02-07T20:55:37.103Z,23.92
2019-02-07T20:58:06.963Z,26.02
2019-02-07T21:00:38.728Z,24.77
2019-02-07T21:03:08.155Z,26.55
2019-02-07T21:05:38.102Z,25.80
2019-02-07T21:08:07.459Z,24.02
2019-02-07T21:10:38.576Z,26.45
2019-02-07T21:13:08.335Z,22.90
2019-02-07T21:15:38.027Z,24.18
2019-02-07T21:18:07.380Z,21.48
2019-02-07T21:20:36.896Z,21.95
2019-02-07T21:23:06.723Z,22.15
2019-02-07T21:25:45.013Z,21.70
2019-02-07T21:28:14.549Z,23.30
2019-02-07T21:30:44.089Z,22.10
2019-02-07T21:33:13.375Z,22.10
2019-02-07T21:35:42.750Z,20.35
2019-02-07T21:38:12.027Z,21.07
2019-02-07T21:40:41.328Z,21.73
2019-02-07T21:43:11.087Z,27.32
2019-02-07T21:45:42.319Z,23.35
2019-02-07T21:48:11.601Z,22.80
2019-02-07T21:50:40.890Z,17.65
2019-02-07T21:53:10.423Z,17.40
2019-02-07T21:55:39.718Z,16.67
2019-02-07T21:58:09.797Z,17.77
2019-02-07T22:00:44.687Z,17.87
2019-02-07T22:03:14.686Z,16.65
2019-02-07T22:05:44.514Z,18.20
2019-02-07T22:08:13.792Z,18.32
2019-02-07T22:10:43.099Z,15.68
2019-02-07T22:13:12.846Z,19.02
2019-02-07T22:15:42.126Z,18.52
2019-02-07T22:18:11.436Z,18.02
2019-02-07T22:20:40.742Z,18.75
2019-02-07T22:23:10.033Z,17.60
2019-02-07T22:25:39.343Z,18.00
2019-02-07T22:28:09.884Z,19.12
2019-02-07T22:30:39.935Z,17.67
2019-02-07T22:33:09.238Z,17.95
2019-02-07T22:35:38.520Z,17.95
2019-02-07T22:38:08.058Z,17.73
2019-02-07T22:40:37.359Z,18.20
2019-02-07T22:43:07.302Z,19.30
2019-02-07T22:45:36.899Z,18.05
2019-02-07T22:48:06.420Z,17.23
2019-02-07T22:50:35.889Z,20.12
2019-02-07T22:53:05.311Z,18.60
2019-02-07T22:55:34.614Z,21.23
2019-02-07T22:58:06.132Z,20.50
2019-02-07T23:00:44.671Z,19.92
2019-02-07T23:03:17.543Z,19.10
2019-02-07T23:05:46.989Z,22.27
2019-02-07T23:08:16.415Z,18.95
2019-02-07T23:10:46.097Z,20.10
2019-02-07T23:13:15.699Z,20.20
2019-02-07T23:15:45.307Z,19.17
2019-02-07T23:18:14.911Z,19.00
2019-02-07T23:20:44.199Z,18.10
2019-02-07T23:23:13.499Z,18.00
2019-02-07T23:25:43.163Z,19.75
2019-02-07T23:28:12.462Z,18.73
2019-02-07T23:30:41.779Z,18.55
2019-02-07T23:33:11.075Z,18.98
2019-02-07T23:35:40.362Z,17.05
2019-02-07T23:38:09.668Z,17.10
2019-02-07T23:40:39.332Z,18.20
2019-02-07T23:43:08.980Z,17.52
2019-02-07T23:45:38.259Z,17.20
2019-02-07T23:48:07.951Z,16.48
2019-02-07T23:50:37.715Z,15.25
2019-02-07T23:53:14.332Z,15.65
2019-02-07T23:55:38.180Z,16.32
2019-02-07T23:58:07.533Z,15.70
